sensor_id;sensor_type;location;lat;lon;timestamp;pressure;altitude;pressure_sealevel;temperature;humidity
77110;BME280;66062;52.464;16.922;2023-01-09T00:01:46;99405.84;;;4.58;97.82
77110;BME280;66062;52.464;16.922;2023-01-09T00:04:12;99397.28;;;4.65;97.71
77110;BME280;66062;52.464;16.922;2023-01-09T00:06:37;99396.28;;;4.57;97.68
77110;BME280;66062;52.464;16.922;2023-01-09T00:09:04;99395.59;;;4.64;97.66
77110;BME280;66062;52.464;16.922;2023-01-09T00:11:30;99396.84;;;4.60;97.89
77110;BME280;66062;52.464;16.922;2023-01-09T00:13:55;99393.47;;;4.58;97.96
77110;BME280;66062;52.464;16.922;2023-01-09T00:16:21;99410.06;;;4.60;97.21
77110;BME280;66062;52.464;16.922;2023-01-09T00:18:46;99409.47;;;4.57;98.09
77110;BME280;66062;52.464;16.922;2023-01-09T00:21:12;99387.94;;;4.61;98.01
77110;BME280;66062;52.464;16.922;2023-01-09T00:23:38;99391.44;;;4.62;97.94
77110;BME280;66062;52.464;16.922;2023-01-09T00:26:05;99392.84;;;4.66;97.15
77110;BME280;66062;52.464;16.922;2023-01-09T00:28:31;99397.25;;;4.56;97.93
77110;BME280;66062;52.464;16.922;2023-01-09T00:30:58;99393.56;;;4.47;98.53
77110;BME280;66062;52.464;16.922;2023-01-09T00:33:44;99399.44;;;4.51;98.55
77110;BME280;66062;52.464;16.922;2023-01-09T00:36:10;99394.66;;;4.45;98.29
77110;BME280;66062;52.464;16.922;2023-01-09T00:38:36;99389.75;;;4.61;98.35
77110;BME280;66062;52.464;16.922;2023-01-09T00:41:07;99389.44;;;4.54;97.59
77110;BME280;66062;52.464;16.922;2023-01-09T00:43:42;99391.78;;;4.57;98.10
77110;BME280;66062;52.464;16.922;2023-01-09T00:46:09;99375.69;;;4.60;97.40
77110;BME280;66062;52.464;16.922;2023-01-09T00:48:37;99380.56;;;4.35;98.33
77110;BME280;66062;52.464;16.922;2023-01-09T00:51:04;99385.41;;;4.29;98.80
77110;BME280;66062;52.464;16.922;2023-01-09T00:53:32;99385.84;;;4.35;99.46
77110;BME280;66062;52.464;16.922;2023-01-09T00:56:06;99381.38;;;4.25;99.08
77110;BME280;66062;52.464;16.922;2023-01-09T00:58:33;99368.34;;;4.13;99.99
77110;BME280;66062;52.464;16.922;2023-01-09T01:00:59;99364.38;;;3.98;100.00
77110;BME280;66062;52.464;16.922;2023-01-09T01:03:25;99363.34;;;3.89;100.00
77110;BME280;66062;52.464;16.922;2023-01-09T01:05:50;99374.13;;;3.86;100.00
77110;BME280;66062;52.464;16.922;2023-01-09T01:08:34;99369.97;;;3.83;100.00
77110;BME280;66062;52.464;16.922;2023-01-09T01:11:04;99369.91;;;3.74;100.00
77110;BME280;66062;52.464;16.922;2023-01-09T01:13:30;99370.09;;;3.82;100.00
77110;BME280;66062;52.464;16.922;2023-01-09T01:15:55;99373.09;;;3.77;100.00
77110;BME280;66062;52.464;16.922;2023-01-09T01:18:21;99376.41;;;3.70;100.00
77110;BME280;66062;52.464;16.922;2023-01-09T01:20:46;99368.94;;;3.75;100.00
77110;BME280;66062;52.464;16.922;2023-01-09T01:23:12;99367.25;;;3.74;100.00
77110;BME280;66062;52.464;16.922;2023-01-09T01:25:39;99368.22;;;3.73;100.00
77110;BME280;66062;52.464;16.922;2023-01-09T01:28:05;99371.97;;;3.70;100.00
77110;BME280;66062;52.464;16.922;2023-01-09T01:30:31;99362.94;;;3.73;100.00
77110;BME280;66062;52.464;16.922;2023-01-09T01:32:57;99362.81;;;3.74;100.00
77110;BME280;66062;52.464;16.922;2023-01-09T01:35:23;99362.59;;;3.66;100.00
77110;BME280;66062;52.464;16.922;2023-01-09T01:37:51;99361.44;;;3.59;100.00
77110;BME280;66062;52.464;16.922;2023-01-09T01:40:16;99356.56;;;3.55;100.00
77110;BME280;66062;52.464;16.922;2023-01-09T01:42:47;99357.28;;;3.45;100.00
77110;BME280;66062;52.464;16.922;2023-01-09T01:45:16;99357.56;;;3.42;100.00
77110;BME280;66062;52.464;16.922;2023-01-09T01:53:29;99345.69;;;3.37;100.00
77110;BME280;66062;52.464;16.922;2023-01-09T01:56:16;99337.03;;;3.46;100.00
77110;BME280;66062;52.464;16.922;2023-01-09T01:58:54;99336.13;;;3.36;100.00
77110;BME280;66062;52.464;16.922;2023-01-09T02:01:23;99336.38;;;3.33;100.00
77110;BME280;66062;52.464;16.922;2023-01-09T02:03:51;99331.47;;;3.28;100.00
77110;BME280;66062;52.464;16.922;2023-01-09T02:06:20;99330.28;;;3.21;100.00
77110;BME280;66062;52.464;16.922;2023-01-09T02:08:45;99328.13;;;3.26;100.00
77110;BME280;66062;52.464;16.922;2023-01-09T02:11:12;99323.69;;;3.27;100.00
77110;BME280;66062;52.464;16.922;2023-01-09T02:13:39;99312.94;;;3.19;100.00
77110;BME280;66062;52.464;16.922;2023-01-09T02:17:17;99313.78;;;3.19;100.00
77110;BME280;66062;52.464;16.922;2023-01-09T02:24:40;99308.31;;;3.00;100.00
77110;BME280;66062;52.464;16.922;2023-01-09T02:27:22;99311.66;;;3.02;100.00
77110;BME280;66062;52.464;16.922;2023-01-09T02:30:11;99297.53;;;3.03;100.00
77110;BME280;66062;52.464;16.922;2023-01-09T02:32:45;99289.75;;;3.01;100.00
77110;BME280;66062;52.464;16.922;2023-01-09T02:40:48;99281.59;;;3.05;100.00
77110;BME280;66062;52.464;16.922;2023-01-09T02:43:14;99287.38;;;2.98;100.00
77110;BME280;66062;52.464;16.922;2023-01-09T02:45:40;99290.56;;;3.13;100.00
77110;BME280;66062;52.464;16.922;2023-01-09T02:48:09;99295.78;;;3.24;100.00
77110;BME280;66062;52.464;16.922;2023-01-09T02:53:47;99284.09;;;3.06;100.00
77110;BME280;66062;52.464;16.922;2023-01-09T02:56:21;99291.53;;;3.01;100.00
77110;BME280;66062;52.464;16.922;2023-01-09T03:02:07;99281.03;;;2.90;100.00
77110;BME280;66062;52.464;16.922;2023-01-09T03:04:58;99286.69;;;2.85;100.00
77110;BME280;66062;52.464;16.922;2023-01-09T03:07:42;99284.31;;;2.82;100.00
77110;BME280;66062;52.464;16.922;2023-01-09T03:10:20;99277.25;;;2.83;100.00
77110;BME280;66062;52.464;16.922;2023-01-09T03:12:50;99260.97;;;2.78;100.00
77110;BME280;66062;52.464;16.922;2023-01-09T03:15:18;99265.88;;;2.71;100.00
77110;BME280;66062;52.464;16.922;2023-01-09T03:17:46;99270.56;;;2.68;100.00
77110;BME280;66062;52.464;16.922;2023-01-09T03:20:16;99272.47;;;2.66;100.00
77110;BME280;66062;52.464;16.922;2023-01-09T03:22:58;99268.63;;;2.70;100.00
77110;BME280;66062;52.464;16.922;2023-01-09T03:25:26;99261.44;;;2.72;100.00
77110;BME280;66062;52.464;16.922;2023-01-09T03:28:01;99264.19;;;2.70;100.00
77110;BME280;66062;52.464;16.922;2023-01-09T03:30:28;99265.31;;;2.68;100.00
77110;BME280;66062;52.464;16.922;2023-01-09T03:32:54;99270.00;;;2.64;100.00
77110;BME280;66062;52.464;16.922;2023-01-09T03:35:19;99259.31;;;2.66;100.00
77110;BME280;66062;52.464;16.922;2023-01-09T03:37:45;99255.59;;;2.68;100.00
77110;BME280;66062;52.464;16.922;2023-01-09T03:40:10;99254.66;;;2.58;100.00
77110;BME280;66062;52.464;16.922;2023-01-09T03:42:38;99253.09;;;2.55;100.00
77110;BME280;66062;52.464;16.922;2023-01-09T03:45:06;99251.41;;;2.54;100.00
77110;BME280;66062;52.464;16.922;2023-01-09T03:47:31;99247.84;;;2.44;100.00
77110;BME280;66062;52.464;16.922;2023-01-09T03:49:57;99239.00;;;2.34;100.00
77110;BME280;66062;52.464;16.922;2023-01-09T03:52:22;99242.84;;;2.30;100.00
77110;BME280;66062;52.464;16.922;2023-01-09T03:54:48;99245.84;;;2.37;100.00
77110;BME280;66062;52.464;16.922;2023-01-09T03:57:13;99245.59;;;2.40;100.00
77110;BME280;66062;52.464;16.922;2023-01-09T03:59:39;99246.53;;;2.39;100.00
77110;BME280;66062;52.464;16.922;2023-01-09T04:02:04;99244.88;;;2.38;100.00
77110;BME280;66062;52.464;16.922;2023-01-09T04:04:30;99247.06;;;2.33;100.00
77110;BME280;66062;52.464;16.922;2023-01-09T04:06:56;99246.69;;;2.37;100.00
77110;BME280;66062;52.464;16.922;2023-01-09T04:09:21;99247.75;;;2.35;100.00
77110;BME280;66062;52.464;16.922;2023-01-09T04:11:47;99251.47;;;2.43;100.00
77110;BME280;66062;52.464;16.922;2023-01-09T04:14:13;99254.78;;;2.45;100.00
77110;BME280;66062;52.464;16.922;2023-01-09T04:16:38;99255.16;;;2.41;100.00
77110;BME280;66062;52.464;16.922;2023-01-09T04:19:03;99255.78;;;2.33;100.00
77110;BME280;66062;52.464;16.922;2023-01-09T04:21:29;99245.84;;;2.37;100.00
77110;BME280;66062;52.464;16.922;2023-01-09T04:23:54;99250.84;;;2.40;100.00
77110;BME280;66062;52.464;16.922;2023-01-09T04:26:20;99245.59;;;2.40;100.00
77110;BME280;66062;52.464;16.922;2023-01-09T04:28:46;99234.97;;;2.30;100.00
77110;BME280;66062;52.464;16.922;2023-01-09T04:31:11;99235.78;;;2.31;100.00
77110;BME280;66062;52.464;16.922;2023-01-09T04:33:37;99234.72;;;2.33;100.00
77110;BME280;66062;52.464;16.922;2023-01-09T04:36:02;99228.63;;;2.22;100.00
77110;BME280;66062;52.464;16.922;2023-01-09T04:38:28;99237.13;;;2.14;100.00
77110;BME280;66062;52.464;16.922;2023-01-09T04:40:53;99228.75;;;2.09;100.00
77110;BME280;66062;52.464;16.922;2023-01-09T04:43:18;99217.28;;;2.10;100.00
77110;BME280;66062;52.464;16.922;2023-01-09T04:45:44;99227.22;;;2.06;100.00
77110;BME280;66062;52.464;16.922;2023-01-09T04:48:10;99221.94;;;2.06;100.00
77110;BME280;66062;52.464;16.922;2023-01-09T04:50:36;99222.31;;;2.13;100.00
77110;BME280;66062;52.464;16.922;2023-01-09T04:53:02;99228.06;;;2.07;100.00
77110;BME280;66062;52.464;16.922;2023-01-09T04:55:27;99228.75;;;2.09;100.00
77110;BME280;66062;52.464;16.922;2023-01-09T04:57:53;99229.72;;;2.08;100.00
77110;BME280;66062;52.464;16.922;2023-01-09T05:00:18;99224.69;;;2.05;100.00
77110;BME280;66062;52.464;16.922;2023-01-09T05:02:43;99216.69;;;2.06;100.00
77110;BME280;66062;52.464;16.922;2023-01-09T05:05:09;99202.56;;;2.07;100.00
77110;BME280;66062;52.464;16.922;2023-01-09T05:07:35;99201.47;;;2.10;100.00
77110;BME280;66062;52.464;16.922;2023-01-09T05:10:03;99196.22;;;2.10;100.00
77110;BME280;66062;52.464;16.922;2023-01-09T05:12:28;99198.16;;;1.97;100.00
77110;BME280;66062;52.464;16.922;2023-01-09T05:14:54;99186.91;;;1.95;100.00
77110;BME280;66062;52.464;16.922;2023-01-09T05:17:22;99186.19;;;2.04;100.00
77110;BME280;66062;52.464;16.922;2023-01-09T05:19:47;99184.84;;;2.21;100.00
77110;BME280;66062;52.464;16.922;2023-01-09T05:22:12;99178.16;;;2.28;100.00
77110;BME280;66062;52.464;16.922;2023-01-09T05:24:38;99174.44;;;2.19;100.00
77110;BME280;66062;52.464;16.922;2023-01-09T05:27:03;99168.94;;;2.22;100.00
77110;BME280;66062;52.464;16.922;2023-01-09T05:29:29;99158.03;;;2.27;100.00
77110;BME280;66062;52.464;16.922;2023-01-09T05:31:54;99161.75;;;2.24;100.00
77110;BME280;66062;52.464;16.922;2023-01-09T05:34:20;99164.53;;;2.23;100.00
77110;BME280;66062;52.464;16.922;2023-01-09T05:36:46;99159.84;;;2.26;100.00
77110;BME280;66062;52.464;16.922;2023-01-09T05:39:11;99154.09;;;2.32;100.00
77110;BME280;66062;52.464;16.922;2023-01-09T05:41:38;99153.84;;;2.24;100.00
77110;BME280;66062;52.464;16.922;2023-01-09T05:44:03;99161.50;;;2.27;100.00
77110;BME280;66062;52.464;16.922;2023-01-09T05:46:30;99157.28;;;2.36;100.00
77110;BME280;66062;52.464;16.922;2023-01-09T05:48:55;99150.72;;;2.30;100.00
77110;BME280;66062;52.464;16.922;2023-01-09T05:51:21;99142.94;;;2.29;100.00
77110;BME280;66062;52.464;16.922;2023-01-09T05:53:47;99144.03;;;2.26;100.00
77110;BME280;66062;52.464;16.922;2023-01-09T05:56:12;99144.41;;;2.22;100.00
77110;BME280;66062;52.464;16.922;2023-01-09T05:58:37;99142.63;;;2.22;100.00
77110;BME280;66062;52.464;16.922;2023-01-09T06:01:03;99144.53;;;2.20;100.00
77110;BME280;66062;52.464;16.922;2023-01-09T06:03:28;99149.09;;;2.18;100.00
77110;BME280;66062;52.464;16.922;2023-01-09T06:05:54;99131.84;;;2.14;100.00
77110;BME280;66062;52.464;16.922;2023-01-09T06:08:19;99140.84;;;2.11;100.00
77110;BME280;66062;52.464;16.922;2023-01-09T06:10:45;99141.91;;;2.09;100.00
77110;BME280;66062;52.464;16.922;2023-01-09T06:13:11;99140.00;;;2.11;100.00
77110;BME280;66062;52.464;16.922;2023-01-09T06:15:36;99136.66;;;2.09;100.00
77110;BME280;66062;52.464;16.922;2023-01-09T06:18:02;99133.06;;;2.10;100.00
77110;BME280;66062;52.464;16.922;2023-01-09T06:20:28;99130.56;;;2.08;100.00
77110;BME280;66062;52.464;16.922;2023-01-09T06:22:54;99137.63;;;2.08;100.00
77110;BME280;66062;52.464;16.922;2023-01-09T06:25:19;99141.81;;;2.10;100.00
77110;BME280;66062;52.464;16.922;2023-01-09T06:27:45;99126.84;;;2.11;100.00
77110;BME280;66062;52.464;16.922;2023-01-09T06:30:13;99121.72;;;2.09;100.00
77110;BME280;66062;52.464;16.922;2023-01-09T06:32:38;99122.91;;;2.05;100.00
77110;BME280;66062;52.464;16.922;2023-01-09T06:35:04;99125.44;;;1.96;100.00
77110;BME280;66062;52.464;16.922;2023-01-09T06:37:30;99128.81;;;1.98;100.00
77110;BME280;66062;52.464;16.922;2023-01-09T06:39:55;99124.03;;;1.92;100.00
77110;BME280;66062;52.464;16.922;2023-01-09T06:42:21;99127.34;;;1.94;100.00
77110;BME280;66062;52.464;16.922;2023-01-09T06:44:46;99127.72;;;1.89;100.00
77110;BME280;66062;52.464;16.922;2023-01-09T06:47:11;99127.59;;;1.91;100.00
77110;BME280;66062;52.464;16.922;2023-01-09T06:49:37;99128.09;;;1.96;100.00
77110;BME280;66062;52.464;16.922;2023-01-09T06:52:02;99134.06;;;1.98;100.00
77110;BME280;66062;52.464;16.922;2023-01-09T06:54:29;99120.28;;;2.05;100.00
77110;BME280;66062;52.464;16.922;2023-01-09T06:56:55;99119.72;;;2.02;100.00
77110;BME280;66062;52.464;16.922;2023-01-09T06:59:20;99133.31;;;2.07;100.00
77110;BME280;66062;52.464;16.922;2023-01-09T07:01:46;99128.28;;;2.15;100.00
77110;BME280;66062;52.464;16.922;2023-01-09T07:04:11;99123.97;;;2.14;100.00
77110;BME280;66062;52.464;16.922;2023-01-09T07:06:37;99123.72;;;2.28;100.00
77110;BME280;66062;52.464;16.922;2023-01-09T07:09:03;99126.44;;;2.38;100.00
77110;BME280;66062;52.464;16.922;2023-01-09T07:11:30;99118.66;;;2.36;100.00
77110;BME280;66062;52.464;16.922;2023-01-09T07:13:55;99124.19;;;2.33;100.00
77110;BME280;66062;52.464;16.922;2023-01-09T07:16:21;99133.03;;;2.32;100.00
77110;BME280;66062;52.464;16.922;2023-01-09T07:18:46;99130.25;;;2.34;100.00
77110;BME280;66062;52.464;16.922;2023-01-09T07:21:12;99126.19;;;2.30;100.00
77110;BME280;66062;52.464;16.922;2023-01-09T07:23:37;99124.28;;;2.32;100.00
77110;BME280;66062;52.464;16.922;2023-01-09T07:26:03;99125.59;;;2.37;100.00
77110;BME280;66062;52.464;16.922;2023-01-09T07:28:28;99125.97;;;2.33;100.00
77110;BME280;66062;52.464;16.922;2023-01-09T07:30:53;99127.75;;;2.32;100.00
77110;BME280;66062;52.464;16.922;2023-01-09T07:33:19;99127.38;;;2.37;100.00
77110;BME280;66062;52.464;16.922;2023-01-09T07:35:44;99116.88;;;2.26;100.00
77110;BME280;66062;52.464;16.922;2023-01-09T07:38:10;99121.16;;;2.38;100.00
77110;BME280;66062;52.464;16.922;2023-01-09T07:40:36;99118.31;;;2.30;100.00
77110;BME280;66062;52.464;16.922;2023-01-09T07:43:01;99115.06;;;2.37;100.00
77110;BME280;66062;52.464;16.922;2023-01-09T07:45:27;99126.09;;;2.31;100.00
77110;BME280;66062;52.464;16.922;2023-01-09T07:47:52;99114.56;;;2.43;100.00
77110;BME280;66062;52.464;16.922;2023-01-09T07:50:18;99115.63;;;2.41;100.00
77110;BME280;66062;52.464;16.922;2023-01-09T07:52:44;99134.06;;;2.41;100.00
77110;BME280;66062;52.464;16.922;2023-01-09T07:55:10;99118.66;;;2.36;100.00
77110;BME280;66062;52.464;16.922;2023-01-09T07:57:36;99115.63;;;2.41;100.00
77110;BME280;66062;52.464;16.922;2023-01-09T08:00:03;99118.38;;;2.39;100.00
77110;BME280;66062;52.464;16.922;2023-01-09T08:02:31;99118.72;;;2.46;100.00
77110;BME280;66062;52.464;16.922;2023-01-09T08:04:56;99104.72;;;2.45;100.00
77110;BME280;66062;52.464;16.922;2023-01-09T08:07:22;99110.91;;;2.55;100.00
77110;BME280;66062;52.464;16.922;2023-01-09T08:09:47;99109.50;;;2.51;100.00
77110;BME280;66062;52.464;16.922;2023-01-09T08:12:13;99114.56;;;2.43;100.00
77110;BME280;66062;52.464;16.922;2023-01-09T08:14:39;99121.75;;;2.41;100.00
77110;BME280;66062;52.464;16.922;2023-01-09T08:17:05;99113.19;;;2.49;100.00
77110;BME280;66062;52.464;16.922;2023-01-09T08:19:30;99113.81;;;2.52;100.00
77110;BME280;66062;52.464;16.922;2023-01-09T08:21:56;99117.97;;;2.55;100.00
77110;BME280;66062;52.464;16.922;2023-01-09T08:24:21;99116.84;;;2.69;100.00
77110;BME280;66062;52.464;16.922;2023-01-09T08:26:47;99113.44;;;2.78;100.00
77110;BME280;66062;52.464;16.922;2023-01-09T08:29:12;99112.41;;;2.90;100.00
77110;BME280;66062;52.464;16.922;2023-01-09T08:31:37;99119.97;;;2.94;100.00
77110;BME280;66062;52.464;16.922;2023-01-09T08:34:03;99111.78;;;2.97;100.00
77110;BME280;66062;52.464;16.922;2023-01-09T08:36:28;99107.59;;;2.95;100.00
77110;BME280;66062;52.464;16.922;2023-01-09T08:38:54;99111.78;;;2.77;100.00
77110;BME280;66062;52.464;16.922;2023-01-09T08:41:19;99106.06;;;2.92;100.00
77110;BME280;66062;52.464;16.922;2023-01-09T08:44:03;99106.44;;;2.88;100.00
77110;BME280;66062;52.464;16.922;2023-01-09T08:46:47;99104.16;;;2.94;100.00
77110;BME280;66062;52.464;16.922;2023-01-09T08:49:35;99105.22;;;2.92;100.00
77110;BME280;66062;52.464;16.922;2023-01-09T08:52:00;99100.91;;;2.91;100.00
77110;BME280;66062;52.464;16.922;2023-01-09T08:54:26;99099.00;;;2.93;100.00
77110;BME280;66062;52.464;16.922;2023-01-09T08:56:51;99095.84;;;2.99;100.00
77110;BME280;66062;52.464;16.922;2023-01-09T08:59:17;99094.06;;;2.99;100.00
77110;BME280;66062;52.464;16.922;2023-01-09T09:01:42;99093.72;;;2.93;100.00
77110;BME280;66062;52.464;16.922;2023-01-09T09:04:09;99092.88;;;2.92;100.00
77110;BME280;66062;52.464;16.922;2023-01-09T09:06:34;99085.03;;;3.02;100.00
77110;BME280;66062;52.464;16.922;2023-01-09T09:09:01;99082.84;;;3.07;100.00
77110;BME280;66062;52.464;16.922;2023-01-09T09:11:31;99073.47;;;3.14;100.00
77110;BME280;66062;52.464;16.922;2023-01-09T09:13:57;99077.25;;;2.80;100.00
77110;BME280;66062;52.464;16.922;2023-01-09T09:16:23;99080.03;;;2.57;100.00
77110;BME280;66062;52.464;16.922;2023-01-09T09:18:49;99084.56;;;2.55;100.00
77110;BME280;66062;52.464;16.922;2023-01-09T09:21:14;99075.38;;;2.50;100.00
77110;BME280;66062;52.464;16.922;2023-01-09T09:23:40;99079.44;;;2.54;100.00
77110;BME280;66062;52.464;16.922;2023-01-09T09:26:05;99088.84;;;2.68;100.00
77110;BME280;66062;52.464;16.922;2023-01-09T09:28:31;99085.69;;;2.74;100.00
77110;BME280;66062;52.464;16.922;2023-01-09T09:30:56;99074.19;;;2.75;100.00
77110;BME280;66062;52.464;16.922;2023-01-09T09:33:21;99083.31;;;2.71;100.00
77110;BME280;66062;52.464;16.922;2023-01-09T09:35:47;99082.53;;;2.80;100.00
77110;BME280;66062;52.464;16.922;2023-01-09T09:38:12;99069.00;;;2.84;100.00
77110;BME280;66062;52.464;16.922;2023-01-09T09:49:59;99084.53;;;3.08;100.00
77110;BME280;66062;52.464;16.922;2023-01-09T09:54:57;99079.72;;;2.92;100.00
77110;BME280;66062;52.464;16.922;2023-01-09T09:57:32;99081.44;;;3.03;100.00
77110;BME280;66062;52.464;16.922;2023-01-09T09:59:58;99078.28;;;3.09;100.00
77110;BME280;66062;52.464;16.922;2023-01-09T10:02:29;99077.50;;;3.18;100.00
77110;BME280;66062;52.464;16.922;2023-01-09T10:05:14;99061.25;;;3.13;100.00
77110;BME280;66062;52.464;16.922;2023-01-09T10:07:47;99067.22;;;3.15;100.00
77110;BME280;66062;52.464;16.922;2023-01-09T10:10:21;99070.13;;;3.12;100.00
77110;BME280;66062;52.464;16.922;2023-01-09T10:12:53;99066.53;;;3.13;100.00
77110;BME280;66062;52.464;16.922;2023-01-09T10:15:31;99070.53;;;3.38;100.00
77110;BME280;66062;52.464;16.922;2023-01-09T10:39:23;99047.44;;;3.30;100.00
77110;BME280;66062;52.464;16.922;2023-01-09T10:42:01;99053.50;;;3.52;100.00
77110;BME280;66062;52.464;16.922;2023-01-09T10:44:34;99059.47;;;3.54;100.00
77110;BME280;66062;52.464;16.922;2023-01-09T10:47:04;99057.84;;;3.62;100.00
77110;BME280;66062;52.464;16.922;2023-01-09T10:49:35;99057.53;;;3.56;100.00
77110;BME280;66062;52.464;16.922;2023-01-09T10:54:40;99052.25;;;3.56;100.00
77110;BME280;66062;52.464;16.922;2023-01-09T10:57:13;99054.78;;;3.67;100.00
77110;BME280;66062;52.464;16.922;2023-01-09T10:59:40;99057.31;;;3.68;100.00
77110;BME280;66062;52.464;16.922;2023-01-09T11:02:24;99054.81;;;3.36;100.00
77110;BME280;66062;52.464;16.922;2023-01-09T11:04:51;99052.53;;;3.53;100.00
77110;BME280;66062;52.464;16.922;2023-01-09T11:07:23;99051.25;;;3.47;100.00
77110;BME280;66062;52.464;16.922;2023-01-09T11:12:25;99048.34;;;3.90;100.00
77110;BME280;66062;52.464;16.922;2023-01-09T11:14:51;99045.97;;;3.97;100.00
77110;BME280;66062;52.464;16.922;2023-01-09T11:17:25;99042.53;;;3.96;100.00
77110;BME280;66062;52.464;16.922;2023-01-09T11:20:04;99048.75;;;3.95;100.00
77110;BME280;66062;52.464;16.922;2023-01-09T11:22:47;99041.94;;;4.02;100.00
77110;BME280;66062;52.464;16.922;2023-01-09T11:25:16;99049.88;;;4.12;100.00
77110;BME280;66062;52.464;16.922;2023-01-09T11:27:41;99046.56;;;4.10;100.00
77110;BME280;66062;52.464;16.922;2023-01-09T11:30:17;99040.97;;;4.03;100.00
77110;BME280;66062;52.464;16.922;2023-01-09T11:32:45;99045.00;;;4.07;100.00
77110;BME280;66062;52.464;16.922;2023-01-09T11:35:19;99043.38;;;4.06;100.00
77110;BME280;66062;52.464;16.922;2023-01-09T11:37:46;99041.94;;;4.02;100.00
77110;BME280;66062;52.464;16.922;2023-01-09T11:40:19;99036.13;;;4.18;100.00
77110;BME280;66062;52.464;16.922;2023-01-09T11:43:03;99036.28;;;4.16;100.00
77110;BME280;66062;52.464;16.922;2023-01-09T11:45:31;99038.47;;;4.02;100.00
77110;BME280;66062;52.464;16.922;2023-01-09T11:47:58;99040.56;;;3.98;100.00
77110;BME280;66062;52.464;16.922;2023-01-09T11:50:25;99031.13;;;4.05;100.00
77110;BME280;66062;52.464;16.922;2023-01-09T11:53:11;99038.50;;;4.11;100.00
77110;BME280;66062;52.464;16.922;2023-01-09T11:55:37;99030.00;;;4.17;100.00
77110;BME280;66062;52.464;16.922;2023-01-09T11:58:03;99038.63;;;4.19;100.00
77110;BME280;66062;52.464;16.922;2023-01-09T12:00:36;99027.66;;;4.14;100.00
77110;BME280;66062;52.464;16.922;2023-01-09T12:06:26;99027.25;;;4.28;100.00
77110;BME280;66062;52.464;16.922;2023-01-09T12:09:01;99023.22;;;4.34;100.00
77110;BME280;66062;52.464;16.922;2023-01-09T12:25:32;99007.91;;;4.38;100.00
77110;BME280;66062;52.464;16.922;2023-01-09T12:47:46;98994.75;;;4.84;100.00
77110;BME280;66062;52.464;16.922;2023-01-09T12:52:42;98994.81;;;4.65;100.00
77110;BME280;66062;52.464;16.922;2023-01-09T12:55:24;98989.63;;;4.73;100.00
77110;BME280;66062;52.464;16.922;2023-01-09T12:57:58;98983.25;;;4.76;100.00
77110;BME280;66062;52.464;16.922;2023-01-09T13:00:27;98987.19;;;4.62;100.00
77110;BME280;66062;52.464;16.922;2023-01-09T13:03:04;98999.94;;;4.76;100.00
77110;BME280;66062;52.464;16.922;2023-01-09T13:05:36;98994.50;;;4.87;100.00
77110;BME280;66062;52.464;16.922;2023-01-09T13:10:52;99000.03;;;4.94;100.00
77110;BME280;66062;52.464;16.922;2023-01-09T13:13:29;99002.00;;;4.92;100.00
77110;BME280;66062;52.464;16.922;2023-01-09T13:16:01;99003.88;;;4.34;100.00
77110;BME280;66062;52.464;16.922;2023-01-09T13:18:40;99008.19;;;4.54;100.00
77110;BME280;66062;52.464;16.922;2023-01-09T13:21:07;99008.63;;;4.40;100.00
77110;BME280;66062;52.464;16.922;2023-01-09T13:26:14;98999.25;;;4.64;100.00
77110;BME280;66062;52.464;16.922;2023-01-09T13:28:44;99002.22;;;4.32;100.00
77110;BME280;66062;52.464;16.922;2023-01-09T13:31:17;99008.19;;;4.54;100.00
77110;BME280;66062;52.464;16.922;2023-01-09T13:33:50;99005.69;;;4.62;100.00
77110;BME280;66062;52.464;16.922;2023-01-09T13:36:26;99002.06;;;4.53;100.00
77110;BME280;66062;52.464;16.922;2023-01-09T13:38:53;99003.31;;;4.59;100.00
77110;BME280;66062;52.464;16.922;2023-01-09T13:41:21;99009.28;;;4.61;100.00
77110;BME280;66062;52.464;16.922;2023-01-09T13:46:44;99021.34;;;4.73;100.00
77110;BME280;66062;52.464;16.922;2023-01-09T13:59:42;99046.56;;;4.29;100.00
77110;BME280;66062;52.464;16.922;2023-01-09T14:05:06;99059.88;;;4.27;100.00
77110;BME280;66062;52.464;16.922;2023-01-09T14:07:34;99064.06;;;4.30;100.00
77110;BME280;66062;52.464;16.922;2023-01-09T14:10:07;99057.00;;;4.40;100.00
77110;BME280;66062;52.464;16.922;2023-01-09T14:12:44;99072.13;;;4.38;100.00
77110;BME280;66062;52.464;16.922;2023-01-09T14:18:04;99082.69;;;4.48;100.00
77110;BME280;66062;52.464;16.922;2023-01-09T14:20:40;99082.44;;;4.41;100.00
77110;BME280;66062;52.464;16.922;2023-01-09T14:23:20;99084.25;;;4.41;100.00
77110;BME280;66062;52.464;16.922;2023-01-09T14:25:46;99084.78;;;4.35;100.00
77110;BME280;66062;52.464;16.922;2023-01-09T14:28:25;99092.28;;;4.39;100.00
77110;BME280;66062;52.464;16.922;2023-01-09T14:38:47;99103.41;;;4.43;100.00
77110;BME280;66062;52.464;16.922;2023-01-09T14:52:48;99115.25;;;4.77;100.00
77110;BME280;66062;52.464;16.922;2023-01-09T14:55:24;99125.00;;;4.67;100.00
77110;BME280;66062;52.464;16.922;2023-01-09T14:57:51;99126.50;;;4.79;100.00
77110;BME280;66062;52.464;16.922;2023-01-09T15:00:20;99136.94;;;4.81;100.00
77110;BME280;66062;52.464;16.922;2023-01-09T15:02:46;99133.31;;;4.91;100.00
77110;BME280;66062;52.464;16.922;2023-01-09T15:05:19;99142.75;;;4.94;100.00
77110;BME280;66062;52.464;16.922;2023-01-09T15:08:00;99140.53;;;4.89;100.00
77110;BME280;66062;52.464;16.922;2023-01-09T15:10:29;99146.13;;;4.86;100.00
77110;BME280;66062;52.464;16.922;2023-01-09T15:12:57;99141.94;;;4.93;100.00
77110;BME280;66062;52.464;16.922;2023-01-09T15:15:24;99152.38;;;4.95;100.00
77110;BME280;66062;52.464;16.922;2023-01-09T15:18:05;99158.22;;;4.89;100.00
77110;BME280;66062;52.464;16.922;2023-01-09T15:20:32;99158.63;;;5.03;100.00
77110;BME280;66062;52.464;16.922;2023-01-09T15:22:59;99163.50;;;4.98;100.00